Wednesday, September 17, 2014
01:38 UTC
  |  Log In   |  Register Free
Airport Search:

Lewis University Airport
(KLOT)

Lewis University Airport Diagram
No Airport Diagram Available

FAA data valid effective July 24, 2014 until September 18, 2014 (unless otherwise noted).

 
 
 
 
 
 
 
 
 
 
 
 
 
 

Current Aviation Weather for Lewis University Airport (KLOT)

The most recent METAR observation for KLOT was updated at: 0114
METAR Summary (Translated METAR)
KLOT
170055Z AUTO 00000KT 10SM CLR 15/06 A3010 RMK AO2 T01490057
KJOT
170055Z AUTO 00000KT 10SM CLR 11/09 A3011 RMK AO2 T01100087
(6.4 nm SW from KLOT)
KMDW
170051Z 08005KT 10SM CLR 17/10 A3009 RMK AO2 SLP190 T01670100
(18.8 nm NE from KLOT)
TAF Summary (Translated TAF)
KMDW
(18.8 nm NE from KLOT)
162200Z 1622/1718 27005KT P6SM SKC FM162330 08006KT P6SM SKC FM171400 24005KT P6SM SCT080
  Airport Weather Conditions for KLOT

 Current Weather at LOT
58° F
Fair
North winds at 0.0 mph
LOT NOAA Radar

Pressure: 30.09 in
Humidity: 59%
Wind: Calm
Dew Point: 43.3°F
Visibility: 10.00 mi


Airport Weather Forecast for KLOT

Translated METAR and TAF for KLOT
Translated METAR for KLOT (0132 UTC 17 September 2014)
found at http://aviationweather.gov/adds/metars/
 
METAR text: KLOT 170115Z AUTO 21003KT 10SM CLR 12/07 A3010 RMK AO2 T01240070
Conditions at: KLOT (ROMEOVILLE/CHI , IL, US) observed 0115 UTC 17 September 2014
Temperature: 12.4°C (54°F)
Dewpoint: 7.0°C (45°F) [RH = 70%]
Pressure (altimeter): 30.10 inches Hg (1019.4 mb)
Winds: from the SSW (210 degrees) at 3 MPH (3 knots; 1.6 m/s)
Visibility: 10 or more miles (16+ km)
Ceiling: at least 12,000 feet AGL
Clouds: sky clear below 12,000 feet AGL
Weather: automated observation with no human augmentation;
there may or may not be significant weather present at this time
Translated TAF for KLOT

There is no translated TAF available for this airport

Find All Airport Services Find A Hotel Find A Rental Car Find A Golf Course Find A Restaurant $100 Hamburger



FBO's on the Field
FBO Company Facility Photos Services Transportation Aviation Fuel Prices: Prices include tax
Catering Weather Repair Courtesy Rental Type 100LL JetA JetA+ MOGAS 8087
 
Lewis University Airport

This FBO has not yet been rated
FS:Phillips66
Last Updated: Sep-08
Login to update fuel prices
SS:
Contact Lewis University AirportMore FBO Information
 
Add another FBO Facility Photos Catering Weather Repair Courtesy Rental Type 100LL JetA JetA+ MOGAS 8087
Services Transportation Aviation Fuel Prices: Prices include tax


model-print
model-print
model-print
model-print